Tilly Russ — V2ER9 — position and weather

sailwx.info

Track history (hours):
 
Tides and Currents Weather Stations Pressure Air Temp Water Temp Dewpoint Dewpoint Depression Visibility Wind Speed Wind Dir Waves Ship Positions

Tilly Russ

Last reported at 2018-May-29 23:09 UTC. Time now 2018-Jun-20 04:08 UTC.
Position S 27°22' E 153°11'.
Warning: this ship's position is 21 days out of date.

Length 161 m; draft 9.6 m.

Type: Ship (hazmat cat A). MMSI: 305568000.

Date/timePositionNaut miles runAvg speedWind from/ knotsBaromVisibWave heightAir tempDewpointWater temp
2018-May-29 23:09S 27°22' E 153°11'0 0.0
2018-May-29 22:48S 27°22' E 153°11'0 0.7
2018-May-29 22:31S 27°22' E 153°10'510.7
2018-May-29 22:01S 27°17' E 153°14'4 8.7
2018-May-29 21:30S 27°15' E 153°18'713.5
2018-May-29 21:01S 27°09' E 153°21'815.8
2018-May-29 20:30S 27°03' E 153°16'816.7
2018-May-29 20:00S 26°55' E 153°12'612.6
2018-May-29 19:30S 26°49' E 153°11'611.6
2018-May-29 18:58S 26°43' E 153°11'8 8.6
2018-May-29 18:05S 26°47' E 153°18'1 9.4
2018-May-29 18:00S 26°47' E 153°19'2411.1
2018-May-29 15:49S 27°03' E 153°40'33514.8
2018-May-28 17:13S 32°35' E 152°48'315.1
2018-May-28 17:00S 32°38' E 152°47'714.5
2018-May-28 16:29S 32°45' E 152°43'1014.5
2018-May-28 15:49S 32°52' E 152°36'514.6
2018-May-28 15:30S 32°56' E 152°32'914.4
2018-May-28 14:53S 33°03' E 152°26'714.4
2018-May-28 14:25S 33°08' E 152°21'914.5
2018-May-28 13:48S 33°15' E 152°14'2514.6
2018-May-28 12:05S 33°33' E 151°53'213.2
2018-May-28 11:55S 33°35' E 151°52'613.7
2018-May-28 11:30S 33°39' E 151°47'815.6
2018-May-28 10:58S 33°46' E 151°41'815.9
2018-May-28 10:28S 33°51' E 151°34'816.0
2018-May-28 09:59S 33°56' E 151°27'1113.9
2018-May-28 09:13S 34°01' E 151°15'4 0.1
2018-May-26 14:38S 33°58' E 151°13'0 2.0
2018-May-26 14:29S 33°58' E 151°12'3 6.5
2018-May-26 14:00S 34°01' E 151°15'3 6.8
2018-May-26 13:30S 34°01' E 151°19'611.8
2018-May-26 13:01S 33°57' E 151°24'1 2.2
2018-May-26 12:30S 33°55' E 151°25'1 1.2
2018-May-26 12:01S 33°55' E 151°25'1 1.2
2018-May-26 11:31S 33°54' E 151°25'1 1.1
2018-May-26 11:01S 33°54' E 151°26'1 1.2
2018-May-26 10:31S 33°53' E 151°26'1 1.2
2018-May-26 10:00S 33°53' E 151°26'1 1.2
2018-May-26 09:31S 33°53' E 151°27'1 1.1
2018-May-26 09:01S 33°52' E 151°27'1 1.2
2018-May-26 08:31S 33°52' E 151°28'0 0.9
2018-May-26 08:00S 33°52' E 151°28'0 0.9
2018-May-26 07:31S 33°51' E 151°29'1 1.1
2018-May-26 07:01S 33°51' E 151°29'1 1.1
2018-May-26 06:30S 33°51' E 151°30'1 1.0
2018-May-26 05:31S 33°50' E 151°31'1 1.0
2018-May-26 05:00S 33°50' E 151°32'0 0.9
2018-May-26 04:31S 33°50' E 151°32'0 0.7
2018-May-26 04:00S 33°50' E 151°33'0 0.7
2018-May-26 03:30S 33°50' E 151°33'1 0.9
2018-May-26 02:58S 33°50' E 151°34'0 1.0
2018-May-26 02:30S 33°50' E 151°34'1 1.5
2018-May-26 02:01S 33°49' E 151°35'510.0
2018-May-26 01:30S 33°46' E 151°39'5 9.9
2018-May-26 01:00S 33°43' E 151°44'5 9.9
2018-May-26 00:31S 33°39' E 151°48'3710.8
2018-May-25 21:04S 33°15' E 152°22'111.5
2018-May-25 21:00S 33°15' E 152°22'711.4
2018-May-25 20:22S 33°10' E 152°29'611.3
2018-May-25 19:51S 33°06' E 152°34'411.5
2018-May-25 19:31S 33°03' E 152°37'711.3
2018-May-25 18:53S 32°58' E 152°44'  
2018-May-22 04:37S 22°32' E 166°03'110.7
2018-May-22 04:30S 22°32' E 166°04'511.1
2018-May-22 04:00S 22°28' E 166°08'510.8
2018-May-22 03:30S 22°24' E 166°12'612.0
2018-May-22 03:00S 22°20' E 166°17'612.5
2018-May-22 02:30S 22°16' E 166°22'4 8.1
2018-May-22 02:01S 22°16' E 166°26'0 0.2
2018-May-22 01:30S 22°16' E 166°26'0 0.0
2018-May-22 01:00S 22°16' E 166°26'0 0.0
2018-May-22 00:30S 22°16' E 166°26'0 0.0
2018-May-22 00:00S 22°16' E 166°26'0 0.0
2018-May-21 23:30S 22°16' E 166°26'0 0.0
2018-May-21 23:00S 22°16' E 166°26'0 0.0
2018-May-21 22:30S 22°16' E 166°26'0 0.0
2018-May-21 22:00S 22°16' E 166°26'0 0.0
2018-May-21 21:30S 22°16' E 166°26'0 0.0
2018-May-21 21:00S 22°16' E 166°26'0 0.0
2018-May-21 20:30S 22°16' E 166°26'0 0.0
2018-May-21 20:00S 22°16' E 166°26'0 0.0
2018-May-21 19:30S 22°16' E 166°26'0 0.0
2018-May-21 19:00S 22°16' E 166°26'0 0.0
2018-May-21 18:30S 22°16' E 166°26'0 0.0
2018-May-21 17:57S 22°16' E 166°26'0 0.0
2018-May-21 17:30S 22°16' E 166°26'0 0.0
2018-May-21 17:00S 22°16' E 166°26'0 0.0
2018-May-21 16:30S 22°16' E 166°26'0 0.0
2018-May-21 16:00S 22°16' E 166°26'0 0.0
2018-May-21 15:30S 22°16' E 166°26'0 0.0
2018-May-21 15:00S 22°16' E 166°26'0 0.0
2018-May-21 14:30S 22°16' E 166°26'0 0.0
2018-May-21 14:00S 22°16' E 166°26'0 0.0
2018-May-21 13:30S 22°16' E 166°26'0 0.0
2018-May-21 13:00S 22°16' E 166°26'0 0.0
2018-May-21 12:30S 22°16' E 166°26'0 0.0
2018-May-21 12:00S 22°16' E 166°26'0 0.0
2018-May-21 11:30S 22°16' E 166°26'0 0.0
2018-May-21 11:00S 22°16' E 166°26'0 0.0
2018-May-21 10:30S 22°16' E 166°26'0 0.0
2018-May-21 10:00S 22°16' E 166°26'0 0.0
2018-May-21 09:30S 22°16' E 166°26'0 0.0
2018-May-21 09:00S 22°16' E 166°26'0 0.0
2018-May-21 08:30S 22°16' E 166°26'0 0.0
2018-May-21 08:00S 22°16' E 166°26'0 0.0
2018-May-21 07:30S 22°16' E 166°26'0 0.0
2018-May-21 07:00S 22°16' E 166°26'0 0.0
2018-May-21 06:30S 22°16' E 166°26'0 0.0
2018-May-21 06:00S 22°16' E 166°26'0 0.0
2018-May-21 05:30S 22°16' E 166°26'0 0.0
2018-May-21 05:00S 22°16' E 166°26'0 0.0
2018-May-21 04:30S 22°16' E 166°26'0 0.0
2018-May-21 04:00S 22°16' E 166°26'0 0.0
2018-May-21 03:30S 22°16' E 166°26'0 0.0
2018-May-21 03:00S 22°16' E 166°26'0 0.0
2018-May-21 02:30S 22°16' E 166°26'0 0.0
2018-May-21 02:00S 22°16' E 166°26'0 0.0
2018-May-21 01:30S 22°16' E 166°26'0 0.0
2018-May-21 01:00S 22°16' E 166°26'0 0.0
2018-May-21 00:30S 22°16' E 166°26'1 1.7
2018-May-21 00:00S 22°15' E 166°25'510.0
2018-May-20 23:30S 22°17' E 166°20'815.9
2018-May-20 23:00S 22°22' E 166°14'611.9
2018-May-20 22:30S 22°25' E 166°08'  
Track history (hours):
 
Tides and Currents Weather Stations Pressure Air Temp Water Temp Dewpoint Dewpoint Depression Visibility Wind Speed Wind Dir Waves Ship Positions

Tilly Russ

Last reported at 2018-May-29 23:09 UTC. Time now 2018-Jun-20 04:08 UTC.
Position S 27°22' E 153°11'.
Warning: this ship's position is 21 days out of date.

Length 161 m; draft 9.6 m.

Type: Ship (hazmat cat A). MMSI: 305568000.

Date/timePositionNaut miles runAvg speedWind from/ knotsBaromVisibWave heightAir tempDewpointWater temp
2018-May-29 23:09S 27°22' E 153°11'0 0.0
2018-May-29 22:48S 27°22' E 153°11'0 0.7
2018-May-29 22:31S 27°22' E 153°10'510.7
2018-May-29 22:01S 27°17' E 153°14'4 8.7
2018-May-29 21:30S 27°15' E 153°18'713.5
2018-May-29 21:01S 27°09' E 153°21'815.8
2018-May-29 20:30S 27°03' E 153°16'816.7
2018-May-29 20:00S 26°55' E 153°12'612.6
2018-May-29 19:30S 26°49' E 153°11'611.6
2018-May-29 18:58S 26°43' E 153°11'8 8.6
2018-May-29 18:05S 26°47' E 153°18'1 9.4
2018-May-29 18:00S 26°47' E 153°19'2411.1
2018-May-29 15:49S 27°03' E 153°40'33514.8
2018-May-28 17:13S 32°35' E 152°48'315.1
2018-May-28 17:00S 32°38' E 152°47'714.5
2018-May-28 16:29S 32°45' E 152°43'1014.5
2018-May-28 15:49S 32°52' E 152°36'514.6
2018-May-28 15:30S 32°56' E 152°32'914.4
2018-May-28 14:53S 33°03' E 152°26'714.4
2018-May-28 14:25S 33°08' E 152°21'914.5
2018-May-28 13:48S 33°15' E 152°14'2514.6
2018-May-28 12:05S 33°33' E 151°53'213.2
2018-May-28 11:55S 33°35' E 151°52'613.7
2018-May-28 11:30S 33°39' E 151°47'815.6
2018-May-28 10:58S 33°46' E 151°41'815.9
2018-May-28 10:28S 33°51' E 151°34'816.0
2018-May-28 09:59S 33°56' E 151°27'1113.9
2018-May-28 09:13S 34°01' E 151°15'4 0.1
2018-May-26 14:38S 33°58' E 151°13'0 2.0
2018-May-26 14:29S 33°58' E 151°12'3 6.5
2018-May-26 14:00S 34°01' E 151°15'3 6.8
2018-May-26 13:30S 34°01' E 151°19'611.8
2018-May-26 13:01S 33°57' E 151°24'1 2.2
2018-May-26 12:30S 33°55' E 151°25'1 1.2
2018-May-26 12:01S 33°55' E 151°25'1 1.2
2018-May-26 11:31S 33°54' E 151°25'1 1.1
2018-May-26 11:01S 33°54' E 151°26'1 1.2
2018-May-26 10:31S 33°53' E 151°26'1 1.2
2018-May-26 10:00S 33°53' E 151°26'1 1.2
2018-May-26 09:31S 33°53' E 151°27'1 1.1
2018-May-26 09:01S 33°52' E 151°27'1 1.2
2018-May-26 08:31S 33°52' E 151°28'0 0.9
2018-May-26 08:00S 33°52' E 151°28'0 0.9
2018-May-26 07:31S 33°51' E 151°29'1 1.1
2018-May-26 07:01S 33°51' E 151°29'1 1.1
2018-May-26 06:30S 33°51' E 151°30'1 1.0
2018-May-26 05:31S 33°50' E 151°31'1 1.0
2018-May-26 05:00S 33°50' E 151°32'0 0.9
2018-May-26 04:31S 33°50' E 151°32'0 0.7
2018-May-26 04:00S 33°50' E 151°33'0 0.7
2018-May-26 03:30S 33°50' E 151°33'1 0.9
2018-May-26 02:58S 33°50' E 151°34'0 1.0
2018-May-26 02:30S 33°50' E 151°34'1 1.5
2018-May-26 02:01S 33°49' E 151°35'510.0
2018-May-26 01:30S 33°46' E 151°39'5 9.9
2018-May-26 01:00S 33°43' E 151°44'5 9.9
2018-May-26 00:31S 33°39' E 151°48'3710.8
2018-May-25 21:04S 33°15' E 152°22'111.5
2018-May-25 21:00S 33°15' E 152°22'711.4
2018-May-25 20:22S 33°10' E 152°29'611.3
2018-May-25 19:51S 33°06' E 152°34'411.5
2018-May-25 19:31S 33°03' E 152°37'711.3
2018-May-25 18:53S 32°58' E 152°44'  
2018-May-22 04:37S 22°32' E 166°03'110.7
2018-May-22 04:30S 22°32' E 166°04'511.1
2018-May-22 04:00S 22°28' E 166°08'510.8
2018-May-22 03:30S 22°24' E 166°12'612.0
2018-May-22 03:00S 22°20' E 166°17'612.5
2018-May-22 02:30S 22°16' E 166°22'4 8.1
2018-May-22 02:01S 22°16' E 166°26'0 0.2
2018-May-22 01:30S 22°16' E 166°26'0 0.0
2018-May-22 01:00S 22°16' E 166°26'0 0.0
2018-May-22 00:30S 22°16' E 166°26'0 0.0
2018-May-22 00:00S 22°16' E 166°26'0 0.0
2018-May-21 23:30S 22°16' E 166°26'0 0.0
2018-May-21 23:00S 22°16' E 166°26'0 0.0
2018-May-21 22:30S 22°16' E 166°26'0 0.0
2018-May-21 22:00S 22°16' E 166°26'0 0.0
2018-May-21 21:30S 22°16' E 166°26'0 0.0
2018-May-21 21:00S 22°16' E 166°26'0 0.0
2018-May-21 20:30S 22°16' E 166°26'0 0.0
2018-May-21 20:00S 22°16' E 166°26'0 0.0
2018-May-21 19:30S 22°16' E 166°26'0 0.0
2018-May-21 19:00S 22°16' E 166°26'0 0.0
2018-May-21 18:30S 22°16' E 166°26'0 0.0
2018-May-21 17:57S 22°16' E 166°26'0 0.0
2018-May-21 17:30S 22°16' E 166°26'0 0.0
2018-May-21 17:00S 22°16' E 166°26'0 0.0
2018-May-21 16:30S 22°16' E 166°26'0 0.0
2018-May-21 16:00S 22°16' E 166°26'0 0.0
2018-May-21 15:30S 22°16' E 166°26'0 0.0
2018-May-21 15:00S 22°16' E 166°26'0 0.0
2018-May-21 14:30S 22°16' E 166°26'0 0.0
2018-May-21 14:00S 22°16' E 166°26'0 0.0
2018-May-21 13:30S 22°16' E 166°26'0 0.0
2018-May-21 13:00S 22°16' E 166°26'0 0.0
2018-May-21 12:30S 22°16' E 166°26'0 0.0
2018-May-21 12:00S 22°16' E 166°26'0 0.0
2018-May-21 11:30S 22°16' E 166°26'0 0.0
2018-May-21 11:00S 22°16' E 166°26'0 0.0
2018-May-21 10:30S 22°16' E 166°26'0 0.0
2018-May-21 10:00S 22°16' E 166°26'0 0.0
2018-May-21 09:30S 22°16' E 166°26'0 0.0
2018-May-21 09:00S 22°16' E 166°26'0 0.0
2018-May-21 08:30S 22°16' E 166°26'0 0.0
2018-May-21 08:00S 22°16' E 166°26'0 0.0
2018-May-21 07:30S 22°16' E 166°26'0 0.0
2018-May-21 07:00S 22°16' E 166°26'0 0.0
2018-May-21 06:30S 22°16' E 166°26'0 0.0
2018-May-21 06:00S 22°16' E 166°26'0 0.0
2018-May-21 05:30S 22°16' E 166°26'0 0.0
2018-May-21 05:00S 22°16' E 166°26'0 0.0
2018-May-21 04:30S 22°16' E 166°26'0 0.0
2018-May-21 04:00S 22°16' E 166°26'0 0.0
2018-May-21 03:30S 22°16' E 166°26'0 0.0
2018-May-21 03:00S 22°16' E 166°26'0 0.0
2018-May-21 02:30S 22°16' E 166°26'0 0.0
2018-May-21 02:00S 22°16' E 166°26'0 0.0
2018-May-21 01:30S 22°16' E 166°26'0 0.0
2018-May-21 01:00S 22°16' E 166°26'0 0.0
2018-May-21 00:30S 22°16' E 166°26'1 1.7
2018-May-21 00:00S 22°15' E 166°25'510.0
2018-May-20 23:30S 22°17' E 166°20'815.9
2018-May-20 23:00S 22°22' E 166°14'611.9
2018-May-20 22:30S 22°25' E 166°08'  

Dump ship's entire track history